Time,TemperatureF,DewpointF,PressureIn,WindDirection,WindDirectionDegrees,WindSpeedMPH,WindSpeedGustMPH,Humidity,HourlyPrecipIn,Conditions,Clouds,dailyrainin,SolarRadiationWatts/m^2,SoftwareType,DateUTC
2013-07-14 00:05:00,55.8,53.8,30.00,SW,218,11.0,12.0,93,0.00,,,0.00,0,Wunderground v.1.15,2013-07-14 07:05:00,
2013-07-14 00:14:00,55.7,53.7,30.01,SSW,213,12.0,13.0,93,0.00,,,0.00,0,Wunderground v.1.15,2013-07-14 07:14:00,
2013-07-14 00:20:00,55.8,53.8,30.00,SW,218,11.0,14.0,93,0.00,,,0.00,0,Wunderground v.1.15,2013-07-14 07:20:00,
2013-07-14 00:29:00,55.8,53.8,30.01,SSW,203,10.0,10.0,93,0.00,,,0.00,0,Wunderground v.1.15,2013-07-14 07:29:00,
2013-07-14 00:35:00,55.9,53.9,30.01,WSW,239,9.0,10.0,93,0.00,,,0.00,0,Wunderground v.1.15,2013-07-14 07:35:00,
2013-07-14 00:45:00,55.9,54.2,30.00,WSW,239,10.0,10.0,94,0.00,,,0.00,0,Wunderground v.1.15,2013-07-14 07:45:00,
2013-07-14 00:54:00,55.9,54.2,30.00,SW,222,10.0,12.0,94,0.00,,,0.00,0,Wunderground v.1.15,2013-07-14 07:54:00,
2013-07-14 01:00:00,56.0,54.3,30.00,SW,222,9.0,15.0,94,0.00,,,0.00,0,Wunderground v.1.15,2013-07-14 08:00:00,
2013-07-14 01:05:00,56.1,54.4,30.00,SW,218,9.0,15.0,94,0.00,,,0.00,0,Wunderground v.1.15,2013-07-14 08:05:00,
2013-07-14 01:14:00,55.8,54.1,30.00,SW,218,10.0,11.0,94,0.00,,,0.00,0,Wunderground v.1.15,2013-07-14 08:14:00,
2013-07-14 01:20:00,55.8,54.1,30.00,SSW,213,11.0,11.0,94,0.00,,,0.00,0,Wunderground v.1.15,2013-07-14 08:20:00,
2013-07-14 01:29:00,55.8,53.8,30.00,SW,222,12.0,12.0,93,0.00,,,0.00,0,Wunderground v.1.15,2013-07-14 08:29:00,
2013-07-14 01:35:00,55.7,53.7,30.00,SSW,213,11.0,12.0,93,0.00,,,0.00,0,Wunderground v.1.15,2013-07-14 08:35:00,
2013-07-14 01:45:00,55.9,54.2,30.00,SW,224,11.0,13.0,94,0.00,,,0.00,0,Wunderground v.1.15,2013-07-14 08:45:00,
2013-07-14 01:50:00,55.9,54.2,30.00,SW,222,11.0,11.0,94,0.00,,,0.00,0,Wunderground v.1.15,2013-07-14 08:50:00,
2013-07-14 01:59:00,55.8,53.8,30.00,SSW,213,11.0,11.0,93,0.00,,,0.00,0,Wunderground v.1.15,2013-07-14 08:59:00,
2013-07-14 02:05:00,55.7,54.0,30.00,SSW,213,11.0,11.0,94,0.00,,,0.00,0,Wunderground v.1.15,2013-07-14 09:05:00,
2013-07-14 02:14:00,55.6,53.6,30.00,SW,218,11.0,11.0,93,0.00,,,0.00,0,Wunderground v.1.15,2013-07-14 09:14:00,
2013-07-14 02:19:00,55.7,54.0,30.00,SSW,208,10.0,11.0,94,0.00,,,0.00,0,Wunderground v.1.15,2013-07-14 09:19:00,
2013-07-14 02:25:00,55.8,54.1,30.00,SSW,213,9.0,11.0,94,0.00,,,0.00,0,Wunderground v.1.15,2013-07-14 09:25:00,
2013-07-14 02:35:00,55.8,54.1,30.00,SSW,213,8.0,9.0,94,0.00,,,0.00,0,Wunderground v.1.15,2013-07-14 09:35:00,
2013-07-14 02:44:00,55.7,53.7,30.00,WSW,247,8.0,9.0,93,0.00,,,0.00,0,Wunderground v.1.15,2013-07-14 09:44:00,
2013-07-14 02:50:00,55.9,54.2,30.00,WSW,238,7.0,7.0,94,0.00,,,0.00,0,Wunderground v.1.15,2013-07-14 09:50:00,
2013-07-14 02:59:00,55.7,53.7,30.00,WSW,237,7.0,7.0,93,0.00,,,0.00,0,Wunderground v.1.15,2013-07-14 09:59:00,
2013-07-14 03:05:00,55.6,53.6,30.00,SSW,213,6.0,7.0,93,0.00,,,0.00,0,Wunderground v.1.15,2013-07-14 10:05:00,
2013-07-14 03:14:00,55.6,53.6,30.00,WSW,250,5.0,8.0,93,0.00,,,0.00,0,Wunderground v.1.15,2013-07-14 10:14:00,
2013-07-14 03:20:00,55.6,53.6,29.99,WSW,243,6.0,6.0,93,0.00,,,0.00,0,Wunderground v.1.15,2013-07-14 10:20:00,
2013-07-14 03:29:00,55.6,53.6,29.99,WSW,253,4.0,6.0,93,0.00,,,0.00,0,Wunderground v.1.15,2013-07-14 10:29:00,
2013-07-14 03:40:00,55.6,53.6,30.00,WSW,251,5.0,5.0,93,0.00,,,0.00,0,Wunderground v.1.15,2013-07-14 10:40:00,
2013-07-14 03:49:00,55.4,53.4,29.99,WSW,243,5.0,6.0,93,0.00,,,0.00,0,Wunderground v.1.15,2013-07-14 10:49:00,
2013-07-14 03:54:00,55.3,53.3,29.99,WSW,250,5.0,6.0,93,0.00,,,0.00,0,Wunderground v.1.15,2013-07-14 10:54:00,
2013-07-14 04:00:00,55.3,53.3,29.99,SW,222,5.0,6.0,93,0.00,,,0.00,0,Wunderground v.1.15,2013-07-14 11:00:00,
2013-07-14 04:10:00,55.3,53.3,30.00,SW,222,5.0,5.0,93,0.00,,,0.00,0,Wunderground v.1.15,2013-07-14 11:10:00,
2013-07-14 04:15:00,55.1,53.1,29.99,SW,230,5.0,6.0,93,0.00,,,0.00,0,Wunderground v.1.15,2013-07-14 11:15:00,
2013-07-14 04:25:00,55.2,53.2,30.00,SW,218,5.0,5.0,93,0.00,,,0.00,0,Wunderground v.1.15,2013-07-14 11:25:00,
2013-07-14 04:30:00,55.2,53.2,30.00,WSW,237,4.0,4.0,93,0.00,,,0.00,0,Wunderground v.1.15,2013-07-14 11:30:00,
2013-07-14 04:39:00,55.3,53.3,30.00,SW,228,6.0,6.0,93,0.00,,,0.00,0,Wunderground v.1.15,2013-07-14 11:39:00,
2013-07-14 04:45:00,55.4,53.4,30.00,SW,218,8.0,8.0,93,0.00,,,0.00,0,Wunderground v.1.15,2013-07-14 11:45:00,
2013-07-14 04:55:00,55.3,53.3,30.00,West,267,8.0,12.0,93,0.00,,,0.00,0,Wunderground v.1.15,2013-07-14 11:55:00,
2013-07-14 05:05:00,55.2,53.2,30.00,SW,235,8.0,9.0,93,0.00,,,0.00,0,Wunderground v.1.15,2013-07-14 12:05:00,
2013-07-14 05:14:00,55.2,53.2,30.01,WSW,249,8.0,8.0,93,0.00,,,0.00,0,Wunderground v.1.15,2013-07-14 12:14:00,
2013-07-14 05:19:00,55.1,53.1,30.01,SW,218,8.0,10.0,93,0.00,,,0.00,0,Wunderground v.1.15,2013-07-14 12:19:00,
2013-07-14 05:30:00,55.0,53.0,30.01,SW,218,9.0,12.0,93,0.00,,,0.00,0,Wunderground v.1.15,2013-07-14 12:30:00,
2013-07-14 05:39:00,55.1,53.4,30.01,SW,231,8.0,8.0,94,0.00,,,0.00,0,Wunderground v.1.15,2013-07-14 12:39:00,
2013-07-14 05:49:00,54.8,53.1,30.01,WSW,239,7.0,7.0,94,0.00,,,0.00,0,Wunderground v.1.15,2013-07-14 12:49:00,
2013-07-14 05:54:00,54.9,53.2,30.01,WSW,254,7.0,11.0,94,0.00,,,0.00,0,Wunderground v.1.15,2013-07-14 12:54:00,
2013-07-14 06:00:00,54.7,53.0,30.01,SW,227,8.0,8.0,94,0.00,,,0.00,0,Wunderground v.1.15,2013-07-14 13:00:00,
2013-07-14 06:05:00,54.8,53.1,30.02,SW,230,8.0,8.0,94,0.00,,,0.00,0,Wunderground v.1.15,2013-07-14 13:05:00,
2013-07-14 06:14:00,54.8,53.1,30.02,SW,232,7.0,8.0,94,0.00,,,0.00,5,Wunderground v.1.15,2013-07-14 13:14:00,
2013-07-14 06:19:00,54.8,53.1,30.02,SSW,199,8.0,8.0,94,0.00,,,0.00,7,Wunderground v.1.15,2013-07-14 13:19:00,
2013-07-14 06:25:00,54.8,53.1,30.02,SW,218,8.0,10.0,94,0.00,,,0.00,7,Wunderground v.1.15,2013-07-14 13:25:00,
2013-07-14 06:34:00,55.0,53.3,30.02,SW,232,7.0,7.0,94,0.00,,,0.00,14,Wunderground v.1.15,2013-07-14 13:34:00,
2013-07-14 06:39:00,54.7,53.0,30.02,WSW,241,8.0,8.0,94,0.00,,,0.00,16,Wunderground v.1.15,2013-07-14 13:39:00,
2013-07-14 06:45:00,54.7,53.0,30.02,SW,232,7.0,9.0,94,0.00,,,0.00,21,Wunderground v.1.15,2013-07-14 13:45:00,
2013-07-14 06:54:00,54.9,53.2,30.02,WSW,253,8.0,10.0,94,0.00,,,0.00,32,Wunderground v.1.15,2013-07-14 13:54:00,
2013-07-14 07:00:00,54.6,52.9,30.02,WSW,253,9.0,13.0,94,0.00,,,0.00,30,Wunderground v.1.15,2013-07-14 14:00:00,
2013-07-14 07:10:00,54.9,53.5,30.03,WSW,258,9.0,9.0,95,0.00,,,0.00,40,Wunderground v.1.15,2013-07-14 14:10:00,
2013-07-14 07:19:00,54.6,52.9,30.03,WSW,245,10.0,10.0,94,0.00,,,0.00,37,Wunderground v.1.15,2013-07-14 14:19:00,
2013-07-14 07:25:00,54.8,53.1,30.03,SW,235,11.0,11.0,94,0.00,,,0.00,44,Wunderground v.1.15,2013-07-14 14:25:00,
2013-07-14 07:35:00,55.0,53.6,30.03,West,274,9.0,10.0,95,0.00,,,0.00,63,Wunderground v.1.15,2013-07-14 14:35:00,
2013-07-14 07:40:00,54.8,53.1,30.03,West,261,9.0,13.0,94,0.00,,,0.00,65,Wunderground v.1.15,2013-07-14 14:40:00,
2013-07-14 07:49:00,54.5,52.8,30.04,WSW,240,9.0,9.0,94,0.00,,,0.00,67,Wunderground v.1.15,2013-07-14 14:49:00,
2013-07-14 07:55:00,54.7,53.0,30.04,SW,222,9.0,10.0,94,0.00,,,0.00,62,Wunderground v.1.15,2013-07-14 14:55:00,
2013-07-14 08:04:00,55.0,53.3,30.04,WSW,248,7.0,7.0,94,0.00,,,0.00,81,Wunderground v.1.15,2013-07-14 15:04:00,
2013-07-14 08:10:00,55.0,53.3,30.04,SW,235,7.0,7.0,94,0.00,,,0.00,88,Wunderground v.1.15,2013-07-14 15:10:00,
2013-07-14 08:19:00,55.0,53.6,30.04,SW,234,7.0,7.0,95,0.00,,,0.00,109,Wunderground v.1.15,2013-07-14 15:19:00,
2013-07-14 08:25:00,55.1,53.4,30.04,SSW,213,7.0,9.0,94,0.00,,,0.00,141,Wunderground v.1.15,2013-07-14 15:25:00,
2013-07-14 08:34:00,55.1,53.4,30.04,West,261,8.0,8.0,94,0.00,,,0.00,97,Wunderground v.1.15,2013-07-14 15:34:00,
2013-07-14 08:40:00,54.7,53.0,30.04,SW,224,8.0,8.0,94,0.00,,,0.00,132,Wunderground v.1.15,2013-07-14 15:40:00,
2013-07-14 08:49:00,55.2,53.5,30.05,SW,236,7.0,7.0,94,0.00,,,0.00,104,Wunderground v.1.15,2013-07-14 15:49:00,
2013-07-14 08:55:00,54.9,53.2,30.05,WSW,246,7.0,10.0,94,0.00,,,0.00,105,Wunderground v.1.15,2013-07-14 15:55:00,
2013-07-14 09:04:00,55.1,53.4,30.05,SW,232,6.0,7.0,94,0.00,,,0.00,114,Wunderground v.1.15,2013-07-14 16:04:00,
2013-07-14 09:09:00,55.2,53.5,30.05,SW,218,6.0,7.0,94,0.00,,,0.00,120,Wunderground v.1.15,2013-07-14 16:09:00,
2013-07-14 09:15:00,55.3,53.6,30.05,SSW,213,7.0,9.0,94,0.00,,,0.00,130,Wunderground v.1.15,2013-07-14 16:15:00,
2013-07-14 09:24:00,55.1,53.4,30.05,SSW,213,6.0,7.0,94,0.00,,,0.00,139,Wunderground v.1.15,2013-07-14 16:24:00,
2013-07-14 09:30:00,55.4,53.7,30.05,SSW,213,7.0,7.0,94,0.00,,,0.00,199,Wunderground v.1.15,2013-07-14 16:30:00,
2013-07-14 09:39:00,55.3,53.6,30.05,SW,233,7.0,11.0,94,0.00,,,0.00,162,Wunderground v.1.15,2013-07-14 16:39:00,
2013-07-14 09:45:00,55.5,53.8,30.05,SSW,213,7.0,11.0,94,0.00,,,0.00,163,Wunderground v.1.15,2013-07-14 16:45:00,
2013-07-14 09:54:00,55.5,53.8,30.04,SSW,203,9.0,11.0,94,0.00,,,0.00,188,Wunderground v.1.15,2013-07-14 16:54:00,
2013-07-14 10:00:00,55.6,53.9,30.05,SW,226,8.0,10.0,94,0.00,,,0.00,225,Wunderground v.1.15,2013-07-14 17:00:00,
2013-07-14 10:05:00,55.6,53.6,30.05,WSW,238,8.0,10.0,93,0.00,,,0.00,199,Wunderground v.1.15,2013-07-14 17:05:00,
2013-07-14 10:14:00,55.7,53.7,30.04,SSW,213,8.0,8.0,93,0.00,,,0.00,207,Wunderground v.1.15,2013-07-14 17:14:00,
2013-07-14 10:20:00,55.7,54.0,30.05,SSW,213,9.0,14.0,94,0.00,,,0.00,225,Wunderground v.1.15,2013-07-14 17:20:00,
2013-07-14 10:29:00,55.7,54.0,30.04,SSW,213,10.0,10.0,94,0.00,,,0.00,218,Wunderground v.1.15,2013-07-14 17:29:00,
2013-07-14 10:34:00,55.9,54.2,30.04,SW,224,10.0,10.0,94,0.00,,,0.00,248,Wunderground v.1.15,2013-07-14 17:34:00,
2013-07-14 10:40:00,55.7,53.7,30.04,SSW,201,10.0,10.0,93,0.00,,,0.00,264,Wunderground v.1.15,2013-07-14 17:40:00,
2013-07-14 10:50:00,55.9,53.9,30.04,SW,229,10.0,11.0,93,0.00,,,0.00,237,Wunderground v.1.15,2013-07-14 17:50:00,
2013-07-14 10:59:00,56.2,54.5,30.04,SW,222,9.0,9.0,94,0.00,,,0.00,262,Wunderground v.1.15,2013-07-14 17:59:00,
2013-07-14 11:04:00,56.3,54.3,30.04,SSW,203,9.0,10.0,93,0.00,,,0.00,274,Wunderground v.1.15,2013-07-14 18:04:00,
2013-07-14 11:10:00,56.3,54.3,30.05,SW,229,9.0,9.0,93,0.00,,,0.00,299,Wunderground v.1.15,2013-07-14 18:10:00,
2013-07-14 11:19:00,56.4,54.4,30.05,SW,230,10.0,11.0,93,0.00,,,0.00,299,Wunderground v.1.15,2013-07-14 18:19:00,
2013-07-14 11:29:00,56.5,54.5,30.05,SSW,213,11.0,11.0,93,0.00,,,0.00,294,Wunderground v.1.15,2013-07-14 18:29:00,
2013-07-14 11:34:00,56.7,54.7,30.05,SW,218,10.0,11.0,93,0.00,,,0.00,258,Wunderground v.1.15,2013-07-14 18:34:00,
2013-07-14 11:44:00,56.7,54.7,30.05,SW,229,9.0,10.0,93,0.00,,,0.00,327,Wunderground v.1.15,2013-07-14 18:44:00,
2013-07-14 11:49:00,56.6,54.6,30.04,SSW,213,10.0,10.0,93,0.00,,,0.00,394,Wunderground v.1.15,2013-07-14 18:49:00,
2013-07-14 11:55:00,56.7,54.7,30.04,SSW,213,11.0,11.0,93,0.00,,,0.00,345,Wunderground v.1.15,2013-07-14 18:55:00,
2013-07-14 12:05:00,56.8,54.5,30.04,WSW,239,12.0,12.0,92,0.00,,,0.00,446,Wunderground v.1.15,2013-07-14 19:05:00,
2013-07-14 12:14:00,56.9,54.6,30.04,SW,230,11.0,13.0,92,0.00,,,0.00,656,Wunderground v.1.15,2013-07-14 19:14:00,
2013-07-14 12:20:00,57.1,54.5,30.04,SSW,213,11.0,15.0,91,0.00,,,0.00,548,Wunderground v.1.15,2013-07-14 19:20:00,
2013-07-14 12:29:00,57.4,54.8,30.04,SW,227,12.0,13.0,91,0.00,,,0.00,403,Wunderground v.1.15,2013-07-14 19:29:00,
2013-07-14 12:35:00,57.4,54.8,30.04,SW,222,12.0,13.0,91,0.00,,,0.00,394,Wunderground v.1.15,2013-07-14 19:35:00,
2013-07-14 12:44:00,58.0,55.4,30.04,SW,233,11.0,15.0,91,0.00,,,0.00,431,Wunderground v.1.15,2013-07-14 19:44:00,
2013-07-14 12:49:00,58.2,55.3,30.03,WSW,237,11.0,14.0,90,0.00,,,0.00,1109,Wunderground v.1.15,2013-07-14 19:49:00,
2013-07-14 12:55:00,58.2,55.3,30.03,SW,224,12.0,14.0,90,0.00,,,0.00,995,Wunderground v.1.15,2013-07-14 19:55:00,
2013-07-14 13:04:00,58.6,55.4,30.03,SSW,213,12.0,13.0,89,0.00,,,0.00,990,Wunderground v.1.15,2013-07-14 20:04:00,
2013-07-14 13:09:00,58.7,55.8,30.03,SSW,213,12.0,12.0,90,0.00,,,0.00,1009,Wunderground v.1.15,2013-07-14 20:09:00,
2013-07-14 13:19:00,59.4,55.8,30.03,SSW,213,11.0,11.0,88,0.00,,,0.00,979,Wunderground v.1.15,2013-07-14 20:19:00,
2013-07-14 13:24:00,59.5,55.9,30.03,SSW,197,12.0,12.0,88,0.00,,,0.00,974,Wunderground v.1.15,2013-07-14 20:24:00,
2013-07-14 13:30:00,59.6,56.0,30.02,WSW,237,12.0,14.0,88,0.00,,,0.00,970,Wunderground v.1.15,2013-07-14 20:30:00,
2013-07-14 13:39:00,60.0,56.4,30.02,SW,231,11.0,12.0,88,0.00,,,0.00,970,Wunderground v.1.15,2013-07-14 20:39:00,
2013-07-14 13:44:00,60.3,56.4,30.02,SW,228,10.0,12.0,87,0.00,,,0.00,969,Wunderground v.1.15,2013-07-14 20:44:00,
2013-07-14 13:54:00,60.2,56.3,30.02,SSW,213,11.0,13.0,87,0.00,,,0.00,969,Wunderground v.1.15,2013-07-14 20:54:00,
2013-07-14 13:59:00,60.2,56.3,30.01,South,191,11.0,11.0,87,0.00,,,0.00,965,Wunderground v.1.15,2013-07-14 20:59:00,
2013-07-14 14:05:00,59.9,56.0,30.01,SSW,213,11.0,12.0,87,0.00,,,0.00,963,Wunderground v.1.15,2013-07-14 21:05:00,
2013-07-14 14:14:00,59.9,56.0,30.01,SW,218,11.0,12.0,87,0.00,,,0.00,958,Wunderground v.1.15,2013-07-14 21:14:00,
2013-07-14 14:24:00,59.9,56.3,30.00,SSW,213,12.0,12.0,88,0.00,,,0.00,953,Wunderground v.1.15,2013-07-14 21:24:00,
2013-07-14 14:29:00,60.2,56.3,30.00,SSW,213,11.0,12.0,87,0.00,,,0.00,946,Wunderground v.1.15,2013-07-14 21:29:00,
2013-07-14 14:39:00,60.2,56.3,30.00,WSW,239,11.0,11.0,87,0.00,,,0.00,935,Wunderground v.1.15,2013-07-14 21:39:00,
2013-07-14 14:44:00,60.3,56.1,30.00,SSW,213,11.0,13.0,86,0.00,,,0.00,930,Wunderground v.1.15,2013-07-14 21:44:00,
2013-07-14 14:54:00,60.5,56.6,29.99,SSW,213,11.0,13.0,87,0.00,,,0.00,914,Wunderground v.1.15,2013-07-14 21:54:00,
2013-07-14 14:59:00,60.7,56.5,29.99,SW,218,10.0,14.0,86,0.00,,,0.00,909,Wunderground v.1.15,2013-07-14 21:59:00,
2013-07-14 15:09:00,60.8,56.6,29.99,SW,222,10.0,11.0,86,0.00,,,0.00,895,Wunderground v.1.15,2013-07-14 22:09:00,
2013-07-14 15:15:00,60.7,56.5,29.99,SSW,213,10.0,12.0,86,0.00,,,0.00,886,Wunderground v.1.15,2013-07-14 22:15:00,
2013-07-14 15:24:00,60.7,56.5,29.99,SW,226,10.0,13.0,86,0.00,,,0.00,872,Wunderground v.1.15,2013-07-14 22:24:00,
2013-07-14 15:34:00,60.2,56.3,29.98,SSW,213,11.0,11.0,87,0.00,,,0.00,853,Wunderground v.1.15,2013-07-14 22:34:00,
2013-07-14 15:39:00,60.0,56.4,29.98,SSW,213,12.0,14.0,88,0.00,,,0.00,844,Wunderground v.1.15,2013-07-14 22:39:00,
2013-07-14 15:49:00,60.1,56.8,29.97,SSW,213,12.0,12.0,89,0.00,,,0.00,826,Wunderground v.1.15,2013-07-14 22:49:00,
2013-07-14 15:54:00,59.9,56.3,29.97,SSW,213,12.0,13.0,88,0.00,,,0.00,814,Wunderground v.1.15,2013-07-14 22:54:00,
2013-07-14 16:04:00,60.1,56.5,29.97,SW,223,11.0,12.0,88,0.00,,,0.00,791,Wunderground v.1.15,2013-07-14 23:04:00,
2013-07-14 16:10:00,60.6,57.0,29.97,SSW,213,10.0,11.0,88,0.00,,,0.00,780,Wunderground v.1.15,2013-07-14 23:10:00,
2013-07-14 16:20:00,60.8,56.9,29.97,SSW,213,10.0,10.0,87,0.00,,,0.00,758,Wunderground v.1.15,2013-07-14 23:20:00,
2013-07-14 16:29:00,60.9,57.0,29.96,SSW,213,9.0,10.0,87,0.00,,,0.00,735,Wunderground v.1.15,2013-07-14 23:29:00,
2013-07-14 16:35:00,60.9,57.0,29.96,SSW,213,9.0,10.0,87,0.00,,,0.00,722,Wunderground v.1.15,2013-07-14 23:35:00,
2013-07-14 16:44:00,61.5,57.3,29.96,SSW,213,8.0,11.0,86,0.00,,,0.00,694,Wunderground v.1.15,2013-07-14 23:44:00,
2013-07-14 16:54:00,61.3,57.1,29.95,SSW,213,9.0,9.0,86,0.00,,,0.00,670,Wunderground v.1.15,2013-07-14 23:54:00,
2013-07-14 17:04:00,60.8,56.6,29.95,SSW,213,9.0,9.0,86,0.00,,,0.00,643,Wunderground v.1.15,2013-07-15 00:04:00,
2013-07-14 17:10:00,60.8,56.9,29.95,SSW,213,9.0,12.0,87,0.00,,,0.00,624,Wunderground v.1.15,2013-07-15 00:10:00,
2013-07-14 17:19:00,61.0,57.1,29.95,SSW,213,9.0,9.0,87,0.00,,,0.00,598,Wunderground v.1.15,2013-07-15 00:19:00,
2013-07-14 17:29:00,61.3,57.1,29.94,WSW,241,8.0,9.0,86,0.00,,,0.00,570,Wunderground v.1.15,2013-07-15 00:29:00,
2013-07-14 17:35:00,61.3,57.1,29.94,SW,223,8.0,9.0,86,0.00,,,0.00,554,Wunderground v.1.15,2013-07-15 00:35:00,
2013-07-14 17:44:00,61.5,56.9,29.94,SSW,213,8.0,8.0,85,0.00,,,0.00,522,Wunderground v.1.15,2013-07-15 00:44:00,
2013-07-14 17:49:00,61.7,57.1,29.94,SW,224,7.0,7.0,85,0.00,,,0.00,506,Wunderground v.1.15,2013-07-15 00:49:00,
2013-07-14 17:59:00,61.4,56.8,29.93,SW,231,7.0,7.0,85,0.00,,,0.00,476,Wunderground v.1.15,2013-07-15 00:59:00,
2013-07-14 18:04:00,61.5,56.9,29.93,SW,218,7.0,7.0,85,0.00,,,0.00,461,Wunderground v.1.15,2013-07-15 01:04:00,
2013-07-14 18:14:00,61.4,56.5,29.93,SW,218,6.0,7.0,84,0.00,,,0.00,427,Wunderground v.1.15,2013-07-15 01:14:00,
2013-07-14 18:24:00,60.9,56.7,29.94,SW,234,8.0,10.0,86,0.00,,,0.00,394,Wunderground v.1.15,2013-07-15 01:24:00,
2013-07-14 18:29:00,60.5,56.3,29.94,WSW,253,8.0,9.0,86,0.00,,,0.00,376,Wunderground v.1.15,2013-07-15 01:29:00,
2013-07-14 18:39:00,60.1,56.5,29.93,SW,229,8.0,8.0,88,0.00,,,0.00,345,Wunderground v.1.15,2013-07-15 01:39:00,
2013-07-14 18:50:00,60.0,56.4,29.93,SSW,213,7.0,8.0,88,0.00,,,0.00,309,Wunderground v.1.15,2013-07-15 01:50:00,
2013-07-14 18:59:00,59.8,56.2,29.93,SSW,213,7.0,7.0,88,0.00,,,0.00,274,Wunderground v.1.15,2013-07-15 01:59:00,
2013-07-14 19:09:00,59.7,56.1,29.94,WSW,237,7.0,7.0,88,0.00,,,0.00,241,Wunderground v.1.15,2013-07-15 02:09:00,
2013-07-14 19:14:00,59.7,56.1,29.94,SW,223,7.0,7.0,88,0.00,,,0.00,220,Wunderground v.1.15,2013-07-15 02:14:00,
2013-07-14 19:20:00,59.5,55.9,29.94,SW,234,7.0,9.0,88,0.00,,,0.00,197,Wunderground v.1.15,2013-07-15 02:20:00,
2013-07-14 19:25:00,59.4,55.8,29.94,SW,233,7.0,9.0,88,0.00,,,0.00,181,Wunderground v.1.15,2013-07-15 02:25:00,
2013-07-14 19:35:00,59.0,55.8,29.94,SSW,213,7.0,10.0,89,0.00,,,0.00,141,Wunderground v.1.15,2013-07-15 02:35:00,
2013-07-14 19:44:00,58.7,55.5,29.94,SW,234,6.0,9.0,89,0.00,,,0.00,105,Wunderground v.1.15,2013-07-15 02:44:00,
2013-07-14 19:54:00,58.3,55.4,29.94,SW,227,6.0,9.0,90,0.00,,,0.00,72,Wunderground v.1.15,2013-07-15 02:54:00,
2013-07-14 20:05:00,58.3,55.4,29.94,SW,233,5.0,7.0,90,0.00,,,0.00,44,Wunderground v.1.15,2013-07-15 03:05:00,
2013-07-14 20:10:00,58.2,55.3,29.94,WSW,241,5.0,5.0,90,0.00,,,0.00,32,Wunderground v.1.15,2013-07-15 03:10:00,
2013-07-14 20:20:00,57.9,55.0,29.95,WSW,249,4.0,4.0,90,0.00,,,0.00,16,Wunderground v.1.15,2013-07-15 03:20:00,
2013-07-14 20:30:00,57.5,54.6,29.95,SW,226,5.0,5.0,90,0.00,,,0.00,5,Wunderground v.1.15,2013-07-15 03:30:00,
2013-07-14 20:39:00,57.3,54.7,29.95,WSW,238,3.0,4.0,91,0.00,,,0.00,0,Wunderground v.1.15,2013-07-15 03:39:00,
2013-07-14 20:50:00,57.0,54.1,29.95,WSW,251,5.0,6.0,90,0.00,,,0.00,0,Wunderground v.1.15,2013-07-15 03:50:00,
2013-07-14 20:59:00,57.0,54.4,29.95,WSW,243,4.0,4.0,91,0.00,,,0.00,0,Wunderground v.1.15,2013-07-15 03:59:00,
2013-07-14 21:05:00,57.0,54.4,29.95,WSW,249,4.0,4.0,91,0.00,,,0.00,0,Wunderground v.1.15,2013-07-15 04:05:00,
2013-07-14 21:09:00,56.9,54.3,29.95,SW,228,4.0,4.0,91,0.00,,,0.00,0,Wunderground v.1.15,2013-07-15 04:09:00,
2013-07-14 21:14:00,56.8,54.2,29.96,WSW,246,4.0,4.0,91,0.00,,,0.00,0,Wunderground v.1.15,2013-07-15 04:14:00,
2013-07-14 21:24:00,56.7,54.1,29.96,SW,222,5.0,6.0,91,0.00,,,0.00,0,Wunderground v.1.15,2013-07-15 04:24:00,
2013-07-14 21:29:00,56.6,54.0,29.96,SW,226,5.0,5.0,91,0.00,,,0.00,0,Wunderground v.1.15,2013-07-15 04:29:00,
2013-07-14 21:35:00,56.4,53.8,29.96,SW,218,5.0,5.0,91,0.00,,,0.00,0,Wunderground v.1.15,2013-07-15 04:35:00,
2013-07-14 21:44:00,56.4,54.1,29.97,WSW,247,4.0,5.0,92,0.00,,,0.00,0,Wunderground v.1.15,2013-07-15 04:44:00,
2013-07-14 21:49:00,56.4,54.1,29.97,SW,224,4.0,6.0,92,0.00,,,0.00,0,Wunderground v.1.15,2013-07-15 04:49:00,
2013-07-14 21:59:00,56.3,54.0,29.97,SW,232,5.0,10.0,92,0.00,,,0.00,0,Wunderground v.1.15,2013-07-15 04:59:00,
2013-07-14 22:04:00,56.1,53.8,29.97,SW,222,7.0,10.0,92,0.00,,,0.00,0,Wunderground v.1.15,2013-07-15 05:04:00,
2013-07-14 22:09:00,55.9,53.9,29.97,SW,226,8.0,8.0,93,0.00,,,0.00,0,Wunderground v.1.15,2013-07-15 05:09:00,
2013-07-14 22:19:00,56.0,54.0,29.98,SW,218,6.0,9.0,93,0.00,,,0.00,0,Wunderground v.1.15,2013-07-15 05:19:00,
2013-07-14 22:25:00,55.9,53.9,29.98,WSW,257,7.0,9.0,93,0.00,,,0.00,0,Wunderground v.1.15,2013-07-15 05:25:00,
2013-07-14 22:34:00,55.7,53.7,29.98,SW,230,7.0,10.0,93,0.00,,,0.00,0,Wunderground v.1.15,2013-07-15 05:34:00,
2013-07-14 22:39:00,55.6,53.9,29.98,SW,226,7.0,7.0,94,0.00,,,0.00,0,Wunderground v.1.15,2013-07-15 05:39:00,
2013-07-14 22:45:00,55.4,53.7,29.97,SW,236,7.0,7.0,94,0.00,,,0.00,0,Wunderground v.1.15,2013-07-15 05:45:00,
2013-07-14 22:55:00,55.3,53.6,29.97,SW,228,6.0,9.0,94,0.00,,,0.00,0,Wunderground v.1.15,2013-07-15 05:55:00,
2013-07-14 23:04:00,55.2,53.5,29.97,WSW,246,6.0,7.0,94,0.00,,,0.00,0,Wunderground v.1.15,2013-07-15 06:04:00,
2013-07-14 23:10:00,55.3,53.6,29.97,SSW,208,6.0,6.0,94,0.00,,,0.00,0,Wunderground v.1.15,2013-07-15 06:10:00,
2013-07-14 23:19:00,55.2,53.5,29.97,SW,218,5.0,5.0,94,0.00,,,0.00,0,Wunderground v.1.15,2013-07-15 06:19:00,
2013-07-14 23:24:00,55.2,53.5,29.97,SW,226,5.0,8.0,94,0.00,,,0.00,0,Wunderground v.1.15,2013-07-15 06:24:00,
2013-07-14 23:34:00,55.3,53.6,29.97,SSW,213,5.0,6.0,94,0.00,,,0.00,0,Wunderground v.1.15,2013-07-15 06:34:00,
2013-07-14 23:40:00,55.3,53.6,29.97,SW,225,5.0,12.0,94,0.00,,,0.00,0,Wunderground v.1.15,2013-07-15 06:40:00,
2013-07-14 23:49:00,55.2,53.5,29.97,SSW,208,8.0,8.0,94,0.00,,,0.00,0,Wunderground v.1.15,2013-07-15 06:49:00,
2013-07-14 23:59:00,55.0,53.3,29.97,SSW,195,6.0,9.0,94,0.00,,,0.00,0,Wunderground v.1.15,2013-07-15 06:59:00,